Inicio METAR Ruta Wind Satelite

Informe Meteorológico

Fecha: 2021/09/21 15:11:27 Local
2021.09.21 20:11 UTC


Operación:
SKGP 212000Z 30006KT 5000 DZ BKN020 28/25 Q1008 RMK A2978 =